createdAt,value
2022-12-03T00:07:58.659Z,100551.25
2022-12-03T00:17:59.939Z,100547.91
2022-12-03T00:28:01.200Z,100545.44
2022-12-03T00:38:02.422Z,100544.47
2022-12-03T00:48:03.652Z,100535.94
2022-12-03T00:58:04.950Z,100544.56
2022-12-03T01:08:06.258Z,100543.03
2022-12-03T01:18:07.518Z,100554.06
2022-12-03T01:28:08.776Z,100548.13
2022-12-03T01:38:09.984Z,100544.69
2022-12-03T01:48:11.207Z,100554.25
2022-12-03T01:58:12.429Z,100567.06
2022-12-03T02:08:13.728Z,100566.41
2022-12-03T02:18:14.968Z,100573.06
2022-12-03T02:28:16.194Z,100568.91
2022-12-03T02:38:17.420Z,100568.13
2022-12-03T02:48:18.664Z,100556.84
2022-12-03T02:58:19.874Z,100558.38
2022-12-03T03:08:21.271Z,100556.81
2022-12-03T03:18:22.514Z,100551.66
2022-12-03T03:28:23.717Z,100554.91
2022-12-03T03:38:25.014Z,100553.38
2022-12-03T03:48:26.254Z,100548.16
2022-12-03T03:58:27.459Z,100544.78
2022-12-03T04:08:28.796Z,100543.91
2022-12-03T04:18:45.421Z,100537.69
2022-12-03T04:28:49.661Z,100539.50
2022-12-03T04:38:50.882Z,100539.50
2022-12-03T04:48:52.106Z,100539.41
2022-12-03T04:58:53.360Z,100540.38
2022-12-03T05:08:54.642Z,100537.09
2022-12-03T05:18:55.850Z,100532.72
2022-12-03T05:28:57.060Z,100524.97
2022-12-03T05:38:58.267Z,100517.91
2022-12-03T05:59:43.591Z,100499.88
2022-12-03T06:09:44.881Z,100513.66
2022-12-03T06:19:46.120Z,100511.06
2022-12-03T06:29:47.373Z,100518.81
2022-12-03T06:39:48.624Z,100521.25
2022-12-03T06:49:49.885Z,100512.72
2022-12-03T06:59:51.183Z,100527.16
2022-12-03T07:09:52.631Z,100536.56
2022-12-03T07:19:53.904Z,100530.41
2022-12-03T07:29:55.154Z,100529.25
2022-12-03T07:39:56.375Z,100536.34
2022-12-03T07:49:57.718Z,100540.09
2022-12-03T07:59:58.995Z,100535.63
2022-12-03T08:10:00.292Z,100533.88
2022-12-03T08:20:01.566Z,100535.00
2022-12-03T08:30:02.824Z,100514.72
2022-12-03T08:40:04.095Z,100508.84
2022-12-03T08:50:05.334Z,100528.16
2022-12-03T09:00:06.593Z,100509.38
2022-12-03T09:10:07.963Z,100519.88
2022-12-03T09:20:09.203Z,100520.75
2022-12-03T09:30:10.475Z,100527.63
2022-12-03T09:40:11.761Z,100516.59
2022-12-03T09:50:12.986Z,100501.13
2022-12-03T10:00:14.224Z,100506.41
2022-12-03T10:10:15.474Z,100491.03
2022-12-03T10:20:16.728Z,100468.69
2022-12-03T10:30:18.127Z,100462.66
2022-12-03T10:40:19.450Z,100451.59
2022-12-03T10:50:20.721Z,100459.53
2022-12-03T11:00:22.696Z,100433.91
2022-12-03T11:10:24.103Z,100422.69
2022-12-03T11:20:25.377Z,100407.84
2022-12-03T11:30:26.612Z,100389.88
2022-12-03T11:40:43.038Z,100391.72
2022-12-03T11:50:44.330Z,100388.47
2022-12-03T12:00:45.564Z,100371.00
2022-12-03T12:10:46.957Z,100352.97
2022-12-03T12:20:48.192Z,100339.97
2022-12-03T12:30:49.448Z,100325.38
2022-12-03T12:40:50.654Z,100327.88
2022-12-03T12:50:51.917Z,100323.63
2022-12-03T13:00:53.218Z,100306.44
2022-12-03T13:10:54.557Z,100309.94
2022-12-03T13:20:55.853Z,100296.16
2022-12-03T13:30:57.118Z,100284.94
2022-12-03T13:40:59.017Z,100283.41
2022-12-03T13:51:00.344Z,100269.53
2022-12-03T14:01:01.688Z,100266.13
2022-12-03T14:11:02.952Z,100278.22
2022-12-03T14:21:04.203Z,100290.28
2022-12-03T14:31:05.476Z,100308.38
2022-12-03T14:41:26.730Z,100299.75
2022-12-03T14:51:28.052Z,100299.75
2022-12-03T15:01:29.441Z,100295.44
2022-12-03T15:11:30.779Z,100291.03
2022-12-03T15:21:34.864Z,100294.44
2022-12-03T15:31:36.288Z,100290.97
2022-12-03T15:41:37.630Z,100287.41
2022-12-03T15:51:38.922Z,100298.63
2022-12-03T16:01:40.469Z,100295.16
2022-12-03T16:11:41.776Z,100296.00
2022-12-03T16:21:43.120Z,100300.25
2022-12-03T16:31:45.828Z,100300.97
2022-12-03T16:41:47.074Z,100289.81
2022-12-03T16:51:48.339Z,100288.06
2022-12-03T17:01:49.811Z,100288.06
2022-12-03T17:11:51.154Z,100277.56
2022-12-03T17:21:53.968Z,100274.00
2022-12-03T17:31:55.276Z,100282.59
2022-12-03T17:41:56.577Z,100267.97
2022-12-03T17:51:57.832Z,100259.28
2022-12-03T18:01:59.139Z,100256.75
2022-12-03T18:12:00.470Z,100253.22
2022-12-03T18:22:01.715Z,100266.06
2022-12-03T18:32:03.029Z,100260.00
2022-12-03T18:42:04.309Z,100249.59
2022-12-03T18:52:05.566Z,100251.38
2022-12-03T19:02:06.916Z,100250.47
2022-12-03T19:12:14.276Z,100252.91
2022-12-03T19:22:15.988Z,100240.88
2022-12-03T19:32:17.317Z,100259.72
2022-12-03T19:42:18.576Z,100254.44
2022-12-03T19:52:19.811Z,100254.34
2022-12-03T20:02:21.199Z,100252.59
2022-12-03T20:12:22.589Z,100245.69
2022-12-03T20:22:23.830Z,100241.38
2022-12-03T20:32:25.103Z,100238.75
2022-12-03T20:42:26.400Z,100247.47
2022-12-03T20:52:30.308Z,100233.72
2022-12-03T21:02:31.666Z,100228.41
2022-12-03T21:12:33.006Z,100224.09
2022-12-03T21:22:34.376Z,100213.69
2022-12-03T21:32:35.624Z,100216.94
2022-12-03T21:42:37.437Z,100209.31
2022-12-03T21:52:38.822Z,100214.44
2022-12-03T22:02:40.326Z,100206.66
2022-12-03T22:12:42.008Z,100208.50
2022-12-03T22:22:43.329Z,100204.88
2022-12-03T22:32:44.647Z,100200.56
2022-12-03T22:42:50.804Z,100194.47
2022-12-03T22:52:52.458Z,100193.41
2022-12-03T23:02:53.964Z,100167.34
2022-12-03T23:12:55.275Z,100169.25
2022-12-03T23:22:56.546Z,100173.34
2022-12-03T23:32:58.008Z,100159.63
2022-12-03T23:43:01.862Z,100195.09
2022-12-03T23:53:03.269Z,100179.66
